KSLN/SLN METAR and TAF weather

Enter ICAO airport designator
Station Type Date Time Source
KSLN METAR 2023/02/04 01:53 UTC NOAA

KSLN 040153Z 17010KT 10SM CLR 01/M05 A3026 RMK AO2 SLP264 T00061050


Station Type Date Time Source
KSLN Decoded METAR 2023/02/04 01:53 UTC NOAA

SALINA MUNICIPAL AIRPORT, KS, United States (KSLN) 38-47N 97-39W 385M
Feb 03, 2023 - 08:53 PM EST / 2023.02.04 0153 UTC
Wind: from the S (170 degrees) at 12 MPH (10 KT):0
Visibility: 10 mile(s):0
Sky conditions: clear
Temperature: 33.1 F (0.6 C)
Windchill: 24 F (-4 C):1
Dew Point: 23.0 F (-5.0 C)
Relative Humidity: 66%
Pressure (altimeter): 30.26 in. Hg (1024 hPa)
ob: KSLN 040153Z 17010KT 10SM CLR 01/M05 A3026 RMK AO2 SLP264 T00061050
cycle: 2

Station Type Date Time Source
KSLN TAF 2023/02/03 18:22 UTC NOAA

TAF KSLN 031720Z 0318/0418 18012KT P6SM SKC
FM040600 20015G23KT P6SM FEW250

Example: see airport list